createdAt,value
2018-03-31T00:01:13.407Z,8.49
2018-03-31T00:03:47.338Z,8.50
2018-03-31T00:06:22.701Z,8.56
2018-03-31T00:08:57.179Z,8.59
2018-03-31T00:11:31.271Z,8.70
2018-03-31T00:14:04.726Z,8.59
2018-03-31T00:16:39.013Z,8.62
2018-03-31T00:19:13.374Z,8.63
2018-03-31T00:21:47.650Z,8.58
2018-03-31T00:24:22.686Z,8.65
2018-03-31T00:26:57.215Z,8.73
2018-03-31T00:29:31.546Z,8.75
2018-03-31T00:32:05.660Z,8.74
2018-03-31T00:34:39.571Z,8.75
2018-03-31T00:37:13.518Z,8.75
2018-03-31T00:39:47.499Z,8.74
2018-03-31T00:42:22.850Z,8.79
2018-03-31T00:44:56.489Z,8.78
2018-03-31T00:47:30.635Z,8.77
2018-03-31T00:50:04.369Z,8.73
2018-03-31T00:52:38.637Z,8.69
2018-03-31T00:55:11.918Z,8.68
2018-03-31T00:57:46.530Z,8.62
2018-03-31T01:00:20.503Z,8.60
2018-03-31T01:02:54.389Z,8.51
2018-03-31T01:08:29.454Z,8.22
2018-03-31T01:11:03.038Z,8.17
2018-03-31T01:13:37.092Z,8.22
2018-03-31T01:16:10.607Z,8.25
2018-03-31T01:18:44.573Z,8.28
2018-03-31T01:21:18.534Z,8.25
2018-03-31T01:23:52.538Z,8.18
2018-03-31T01:26:25.938Z,8.14
2018-03-31T01:29:00.430Z,8.01
2018-03-31T01:31:33.941Z,8.00
2018-03-31T01:34:08.052Z,7.99
2018-03-31T01:36:42.021Z,7.99
2018-03-31T01:39:16.498Z,7.99
2018-03-31T01:41:50.550Z,7.91
2018-03-31T01:44:24.641Z,7.93
2018-03-31T01:46:58.214Z,7.91
2018-03-31T01:49:32.862Z,7.93
2018-03-31T01:52:06.642Z,7.98
2018-03-31T01:54:40.906Z,7.96
2018-03-31T01:57:14.673Z,7.89
2018-03-31T01:59:48.840Z,7.80
2018-03-31T02:02:22.978Z,7.84
2018-03-31T02:04:56.775Z,7.79
2018-03-31T02:07:30.902Z,7.74
2018-03-31T02:10:05.111Z,7.72
2018-03-31T02:12:39.147Z,7.68
2018-03-31T02:15:13.235Z,7.63
2018-03-31T02:17:47.574Z,7.64
2018-03-31T02:20:21.186Z,7.63
2018-03-31T02:22:55.730Z,7.60
2018-03-31T02:25:28.834Z,7.62
2018-03-31T02:28:02.890Z,7.58
2018-03-31T02:30:36.602Z,7.60
2018-03-31T02:33:10.277Z,7.58
2018-03-31T02:35:44.026Z,7.52
2018-03-31T02:38:18.030Z,7.49
2018-03-31T02:40:52.715Z,7.50
2018-03-31T02:43:27.131Z,7.51
2018-03-31T02:46:01.361Z,7.57
2018-03-31T02:48:35.603Z,7.57
2018-03-31T02:51:09.904Z,7.49
2018-03-31T02:53:44.015Z,7.49
2018-03-31T02:56:18.323Z,7.46
2018-03-31T02:58:52.674Z,7.46
2018-03-31T03:01:27.177Z,7.46
2018-03-31T03:04:00.930Z,7.47
2018-03-31T03:06:34.902Z,7.47
2018-03-31T03:09:08.879Z,7.50
2018-03-31T03:11:42.871Z,7.41
2018-03-31T03:14:17.122Z,7.54
2018-03-31T03:16:51.214Z,7.46
2018-03-31T03:19:25.112Z,7.49
2018-03-31T03:21:58.742Z,7.44
2018-03-31T03:24:32.978Z,7.46
2018-03-31T03:27:06.936Z,7.40
2018-03-31T03:29:40.319Z,7.42
2018-03-31T03:32:14.106Z,7.38
2018-03-31T03:34:48.017Z,7.33
2018-03-31T03:37:23.227Z,7.27
2018-03-31T03:39:56.996Z,7.28
2018-03-31T03:42:30.694Z,7.24
2018-03-31T03:45:04.979Z,7.20
2018-03-31T03:47:39.218Z,7.25
2018-03-31T03:50:13.110Z,7.19
2018-03-31T03:52:47.086Z,7.15
2018-03-31T03:55:21.447Z,7.11
2018-03-31T03:57:55.229Z,7.16
2018-03-31T04:00:29.039Z,7.15
2018-03-31T04:03:03.039Z,7.22
2018-03-31T04:05:42.230Z,7.17
2018-03-31T04:08:15.851Z,7.07
2018-03-31T04:10:50.028Z,7.17
2018-03-31T04:13:23.391Z,7.20
2018-03-31T04:15:57.170Z,7.24
2018-03-31T04:18:30.555Z,7.23
2018-03-31T04:21:04.941Z,7.27
2018-03-31T04:23:38.957Z,7.27
2018-03-31T04:26:13.319Z,7.30
2018-03-31T04:28:47.034Z,7.32
2018-03-31T04:31:21.258Z,7.41
2018-03-31T04:33:55.282Z,7.48
2018-03-31T04:36:29.437Z,7.40
2018-03-31T04:39:03.447Z,7.36
2018-03-31T04:41:37.503Z,7.34
2018-03-31T04:44:11.126Z,7.33
2018-03-31T04:46:44.853Z,7.35
2018-03-31T04:49:18.152Z,7.33
2018-03-31T04:51:52.046Z,7.38
2018-03-31T04:54:26.314Z,7.43
2018-03-31T04:57:00.083Z,7.47
2018-03-31T04:59:33.650Z,7.56
2018-03-31T05:02:07.373Z,7.60
2018-03-31T05:04:40.690Z,7.62
2018-03-31T05:07:14.324Z,7.64
2018-03-31T05:09:48.447Z,7.56
2018-03-31T05:12:23.424Z,7.49
2018-03-31T05:14:58.150Z,7.46
2018-03-31T05:17:32.771Z,7.49
2018-03-31T05:20:06.694Z,7.52
2018-03-31T05:22:40.914Z,7.50
2018-03-31T05:25:14.915Z,7.44
2018-03-31T05:27:49.067Z,7.42
2018-03-31T05:30:23.781Z,7.48
2018-03-31T05:32:58.375Z,7.53
2018-03-31T05:35:32.643Z,7.51
2018-03-31T05:38:06.413Z,7.50
2018-03-31T05:40:40.471Z,7.42
2018-03-31T05:43:13.985Z,7.40
2018-03-31T05:45:50.425Z,7.41
2018-03-31T05:48:24.494Z,7.43
2018-03-31T05:50:58.611Z,7.44
2018-03-31T05:53:32.847Z,7.42
2018-03-31T05:56:06.434Z,7.33
2018-03-31T05:58:40.710Z,7.27
2018-03-31T06:01:14.775Z,7.24
2018-03-31T06:03:48.542Z,7.20
2018-03-31T06:06:23.961Z,7.16
2018-03-31T06:08:57.841Z,7.13
2018-03-31T06:11:31.998Z,7.15
2018-03-31T06:14:06.407Z,7.24
2018-03-31T06:16:40.018Z,7.28
2018-03-31T06:19:13.625Z,7.27
2018-03-31T06:21:47.131Z,7.18
2018-03-31T06:24:20.758Z,7.18
2018-03-31T06:26:54.618Z,7.18
2018-03-31T06:29:28.323Z,7.21
2018-03-31T06:32:02.467Z,7.27
2018-03-31T06:34:36.759Z,7.20
2018-03-31T06:37:10.133Z,7.22
2018-03-31T06:39:44.130Z,7.21
2018-03-31T06:42:18.498Z,7.22
2018-03-31T06:44:52.616Z,7.24
2018-03-31T06:47:26.573Z,7.28
2018-03-31T06:50:00.650Z,7.30
2018-03-31T06:52:34.678Z,7.31
2018-03-31T06:55:08.646Z,7.33
2018-03-31T06:57:42.689Z,7.31
2018-03-31T07:00:16.714Z,7.25
2018-03-31T07:02:50.711Z,7.25
2018-03-31T07:05:24.955Z,7.15
2018-03-31T07:07:58.971Z,7.13
2018-03-31T07:10:33.123Z,7.14
2018-03-31T07:13:06.774Z,7.14
2018-03-31T07:15:40.762Z,7.24
2018-03-31T07:18:14.830Z,7.33
2018-03-31T07:20:48.722Z,7.30
2018-03-31T07:23:24.011Z,7.30
2018-03-31T07:25:57.674Z,7.26
2018-03-31T07:28:31.287Z,7.16
2018-03-31T07:31:05.018Z,7.18
2018-03-31T07:33:39.139Z,7.28
2018-03-31T07:36:13.143Z,7.36
2018-03-31T07:38:47.010Z,7.39
2018-03-31T07:41:20.556Z,7.43
2018-03-31T07:43:54.765Z,7.32
2018-03-31T07:46:29.065Z,7.29
2018-03-31T07:49:03.302Z,7.37
2018-03-31T07:51:37.482Z,7.30
2018-03-31T07:54:11.374Z,7.28
2018-03-31T07:56:46.021Z,7.28
2018-03-31T07:59:19.907Z,7.32
2018-03-31T08:01:54.023Z,7.43
2018-03-31T08:04:28.282Z,7.37
2018-03-31T08:07:02.147Z,7.16
2018-03-31T08:09:36.347Z,7.07
2018-03-31T08:12:10.183Z,7.15
2018-03-31T08:14:43.980Z,7.23
2018-03-31T08:17:18.167Z,7.37
2018-03-31T08:19:52.191Z,7.58
2018-03-31T08:22:26.309Z,7.75
2018-03-31T08:25:00.189Z,7.89
2018-03-31T08:27:35.017Z,7.86
2018-03-31T08:30:08.597Z,7.90
2018-03-31T08:32:42.195Z,7.93
2018-03-31T08:35:16.053Z,7.95
2018-03-31T08:37:50.070Z,7.94
2018-03-31T08:40:24.506Z,7.91
2018-03-31T08:42:58.358Z,7.84
2018-03-31T08:45:31.617Z,7.89
2018-03-31T08:48:05.492Z,7.99
2018-03-31T08:50:40.119Z,8.17
2018-03-31T08:53:13.622Z,8.13
2018-03-31T08:55:47.914Z,7.96
2018-03-31T08:58:22.210Z,8.04
2018-03-31T09:00:56.203Z,8.12
2018-03-31T09:03:30.452Z,8.18
2018-03-31T09:06:04.218Z,8.16
2018-03-31T09:08:38.445Z,8.13
2018-03-31T09:11:12.425Z,8.12
2018-03-31T09:13:46.631Z,7.90
2018-03-31T09:16:21.242Z,7.90
2018-03-31T09:18:55.264Z,7.95
2018-03-31T09:21:29.474Z,8.01
2018-03-31T09:24:03.506Z,8.09
2018-03-31T09:26:37.756Z,8.23
2018-03-31T09:29:12.027Z,8.56
2018-03-31T09:31:46.228Z,8.89
2018-03-31T09:34:20.330Z,9.20
2018-03-31T09:36:54.537Z,9.35
2018-03-31T09:39:28.510Z,9.40
2018-03-31T09:42:02.318Z,9.39
2018-03-31T09:44:36.354Z,9.47
2018-03-31T09:47:10.321Z,9.62
2018-03-31T09:49:44.304Z,9.82
2018-03-31T09:52:18.451Z,9.81
2018-03-31T09:54:52.562Z,9.90
2018-03-31T09:57:26.398Z,9.90
2018-03-31T10:00:00.296Z,10.03
2018-03-31T10:02:34.748Z,9.94
2018-03-31T10:05:09.139Z,9.88
2018-03-31T10:07:43.269Z,9.62
2018-03-31T10:10:17.386Z,9.38
2018-03-31T10:12:51.799Z,9.16
2018-03-31T10:15:25.437Z,9.04
2018-03-31T10:17:59.298Z,8.94
2018-03-31T10:20:33.441Z,8.81
2018-03-31T10:23:07.306Z,8.71
2018-03-31T10:25:41.822Z,8.62
2018-03-31T10:28:15.769Z,8.74
2018-03-31T10:30:49.604Z,8.85
2018-03-31T10:33:24.763Z,8.96
2018-03-31T10:35:58.969Z,9.06
2018-03-31T10:38:33.850Z,9.03
2018-03-31T10:41:07.433Z,9.02
2018-03-31T10:43:41.289Z,9.03
2018-03-31T10:46:14.970Z,9.13
2018-03-31T10:48:48.794Z,9.23
2018-03-31T10:51:22.643Z,9.23
2018-03-31T10:53:56.902Z,9.21
2018-03-31T10:56:31.024Z,9.01
2018-03-31T10:59:04.705Z,8.97
2018-03-31T11:01:38.149Z,8.89
2018-03-31T11:04:12.344Z,8.94
2018-03-31T11:06:46.118Z,8.98
2018-03-31T11:09:19.698Z,9.12
2018-03-31T11:11:53.210Z,9.08
2018-03-31T11:14:27.274Z,9.23
2018-03-31T11:17:01.161Z,9.44
2018-03-31T11:19:35.282Z,9.62
2018-03-31T11:22:09.774Z,9.85
2018-03-31T11:24:43.683Z,9.89
2018-03-31T11:27:17.750Z,9.71
2018-03-31T11:29:51.781Z,9.63
2018-03-31T11:32:25.652Z,9.66
2018-03-31T11:34:59.738Z,9.70
2018-03-31T11:37:33.434Z,9.68
2018-03-31T11:40:07.650Z,9.64
2018-03-31T11:42:41.640Z,9.64
2018-03-31T11:45:15.880Z,9.61
2018-03-31T11:47:49.781Z,9.56
2018-03-31T11:50:23.695Z,9.62
2018-03-31T11:52:57.678Z,9.72
2018-03-31T11:55:31.439Z,9.85
2018-03-31T11:58:04.907Z,9.71
2018-03-31T12:00:38.817Z,9.59
2018-03-31T12:03:12.827Z,9.66
2018-03-31T12:05:47.054Z,9.73
2018-03-31T12:08:20.753Z,9.85
2018-03-31T12:10:54.206Z,9.88
2018-03-31T12:13:28.310Z,9.58
2018-03-31T12:16:02.327Z,9.52
2018-03-31T12:18:35.990Z,9.49
2018-03-31T12:21:09.828Z,9.45
2018-03-31T12:23:44.074Z,9.51
2018-03-31T12:26:18.118Z,9.66
2018-03-31T12:28:52.627Z,9.82
2018-03-31T12:31:26.819Z,9.82
2018-03-31T12:34:00.938Z,9.97
2018-03-31T12:36:34.966Z,10.09
2018-03-31T12:39:08.967Z,10.12
2018-03-31T12:41:43.084Z,10.13
2018-03-31T12:44:16.994Z,10.12
2018-03-31T12:46:50.847Z,10.09
2018-03-31T12:49:25.019Z,9.90
2018-03-31T12:51:58.466Z,9.78
2018-03-31T12:54:32.453Z,9.52
2018-03-31T12:57:06.818Z,9.59
2018-03-31T12:59:40.908Z,9.60
2018-03-31T13:02:14.890Z,9.51
2018-03-31T13:04:49.194Z,9.45
2018-03-31T13:07:23.171Z,9.47
2018-03-31T13:09:57.592Z,9.59
2018-03-31T13:12:31.898Z,9.67
2018-03-31T13:15:05.295Z,9.68
2018-03-31T13:17:39.342Z,9.77
2018-03-31T13:20:13.283Z,9.81
2018-03-31T13:22:48.317Z,9.80
2018-03-31T13:25:22.398Z,9.68
2018-03-31T13:27:56.938Z,9.56
2018-03-31T13:30:31.368Z,9.52
2018-03-31T13:33:05.180Z,9.53
2018-03-31T13:35:39.692Z,9.52
2018-03-31T13:38:13.803Z,9.52
2018-03-31T13:40:47.710Z,9.48
2018-03-31T13:43:21.945Z,9.42
2018-03-31T13:45:55.935Z,9.43
2018-03-31T13:48:29.660Z,9.40
2018-03-31T13:51:04.062Z,9.43
2018-03-31T13:53:37.957Z,9.47
2018-03-31T13:56:12.068Z,9.55
2018-03-31T13:58:46.658Z,9.67
2018-03-31T14:01:20.606Z,9.78
2018-03-31T14:03:54.302Z,9.92
2018-03-31T14:06:28.290Z,10.07
2018-03-31T14:09:02.274Z,10.14
2018-03-31T14:11:36.030Z,10.20
2018-03-31T14:14:09.917Z,10.35
2018-03-31T14:16:43.625Z,10.32
2018-03-31T14:19:17.674Z,10.09
2018-03-31T14:21:51.527Z,9.90
2018-03-31T14:24:25.370Z,9.70
2018-03-31T14:26:59.327Z,9.56
2018-03-31T14:29:33.447Z,9.44
2018-03-31T14:32:07.348Z,9.35
2018-03-31T14:34:41.235Z,9.24
2018-03-31T14:37:15.243Z,9.20
2018-03-31T14:39:49.598Z,9.16
2018-03-31T14:42:23.156Z,9.06
2018-03-31T14:44:57.566Z,8.95
2018-03-31T14:47:31.520Z,8.87
2018-03-31T14:50:05.129Z,8.84
2018-03-31T14:52:39.344Z,8.89
2018-03-31T14:55:13.615Z,9.00
2018-03-31T14:57:47.166Z,9.07
2018-03-31T15:00:21.277Z,9.07
2018-03-31T15:02:54.878Z,9.08
2018-03-31T15:05:29.095Z,9.04
2018-03-31T15:08:02.362Z,9.05
2018-03-31T15:10:35.683Z,9.08
2018-03-31T15:13:09.691Z,9.17
2018-03-31T15:15:43.893Z,9.23
2018-03-31T15:18:17.783Z,9.25
2018-03-31T15:20:52.134Z,9.21
2018-03-31T15:23:25.786Z,9.15
2018-03-31T15:25:59.730Z,9.15
2018-03-31T15:28:33.599Z,9.22
2018-03-31T15:31:07.289Z,9.21
2018-03-31T15:33:41.325Z,9.14
2018-03-31T15:36:16.341Z,9.11
2018-03-31T15:38:49.707Z,9.15
2018-03-31T15:41:23.706Z,9.13
2018-03-31T15:43:57.746Z,9.10
2018-03-31T15:46:31.622Z,9.03
2018-03-31T15:49:04.897Z,8.90
2018-03-31T15:51:39.412Z,8.87
2018-03-31T15:54:12.779Z,8.87
2018-03-31T15:56:46.408Z,8.84
2018-03-31T15:59:19.768Z,8.77
2018-03-31T16:01:54.085Z,8.74
2018-03-31T16:04:28.380Z,8.77
2018-03-31T16:07:02.659Z,8.86
2018-03-31T16:09:36.878Z,8.90
2018-03-31T16:12:11.250Z,9.00
2018-03-31T16:14:45.438Z,8.95
2018-03-31T16:17:19.304Z,8.94
2018-03-31T16:19:53.302Z,8.86
2018-03-31T16:22:27.483Z,8.78
2018-03-31T16:25:01.456Z,8.81
2018-03-31T16:27:35.450Z,8.83
2018-03-31T16:30:09.650Z,8.86
2018-03-31T16:32:43.714Z,8.80
2018-03-31T16:35:17.708Z,8.79
2018-03-31T16:37:51.840Z,8.80
2018-03-31T16:40:26.017Z,8.70
2018-03-31T16:42:59.598Z,8.56
2018-03-31T16:45:33.396Z,8.51
2018-03-31T16:48:07.371Z,8.52
2018-03-31T16:50:41.459Z,8.53
2018-03-31T16:53:15.453Z,8.52
2018-03-31T16:55:49.619Z,8.60
2018-03-31T16:58:23.807Z,8.60
2018-03-31T17:00:58.070Z,8.54
2018-03-31T17:03:32.062Z,8.48
2018-03-31T17:06:06.456Z,8.41
2018-03-31T17:08:39.970Z,8.44
2018-03-31T17:13:53.482Z,8.48
2018-03-31T17:16:27.271Z,8.44
2018-03-31T17:19:00.647Z,8.40
2018-03-31T17:21:34.694Z,8.33
2018-03-31T17:24:08.531Z,8.44
2018-03-31T17:26:42.986Z,8.47
2018-03-31T17:29:17.501Z,8.42
2018-03-31T17:31:51.515Z,8.43
2018-03-31T17:34:25.715Z,8.35
2018-03-31T17:36:59.727Z,8.25
2018-03-31T17:39:33.942Z,8.16
2018-03-31T17:42:07.775Z,8.08
2018-03-31T17:44:42.060Z,8.06
2018-03-31T17:47:15.652Z,7.97
2018-03-31T17:49:49.843Z,7.86
2018-03-31T17:52:23.683Z,7.82
2018-03-31T17:54:57.806Z,7.79
2018-03-31T17:57:32.074Z,7.75
2018-03-31T18:00:05.658Z,7.65
2018-03-31T18:02:39.647Z,7.61
2018-03-31T18:05:13.315Z,7.71
2018-03-31T18:07:47.882Z,7.82
2018-03-31T18:10:21.619Z,7.91
2018-03-31T18:12:55.703Z,7.89
2018-03-31T18:15:29.595Z,7.90
2018-03-31T18:18:03.693Z,7.87
2018-03-31T18:20:37.945Z,7.79
2018-03-31T18:23:11.686Z,7.65
2018-03-31T18:25:45.859Z,7.46
2018-03-31T18:28:19.749Z,7.37
2018-03-31T18:30:53.847Z,7.28
2018-03-31T18:33:27.674Z,7.24
2018-03-31T18:36:01.605Z,7.28
2018-03-31T18:38:35.166Z,7.22
2018-03-31T18:41:09.269Z,7.09
2018-03-31T18:43:43.735Z,7.02
2018-03-31T18:46:17.768Z,6.98
2018-03-31T18:48:51.963Z,6.93
2018-03-31T18:51:25.767Z,6.73
2018-03-31T18:53:59.989Z,6.73
2018-03-31T18:56:34.214Z,6.70
2018-03-31T18:59:08.637Z,6.69
2018-03-31T19:01:42.839Z,6.64
2018-03-31T19:04:17.021Z,6.62
2018-03-31T19:06:50.890Z,6.62
2018-03-31T19:09:24.770Z,6.64
2018-03-31T19:11:59.039Z,6.71
2018-03-31T19:14:32.787Z,6.69
2018-03-31T19:17:12.088Z,6.66
2018-03-31T19:19:45.943Z,6.68
2018-03-31T19:22:19.913Z,6.61
2018-03-31T19:24:59.473Z,6.60
2018-03-31T19:27:33.674Z,6.60
2018-03-31T19:30:07.809Z,6.67
2018-03-31T19:32:42.609Z,6.72
2018-03-31T19:35:16.770Z,6.81
2018-03-31T19:37:50.662Z,6.86
2018-03-31T19:40:24.659Z,6.83
2018-03-31T19:42:59.698Z,6.87
2018-03-31T19:45:33.189Z,6.91
2018-03-31T19:48:07.162Z,6.95
2018-03-31T19:50:40.763Z,6.94
2018-03-31T19:53:14.831Z,6.96
2018-03-31T19:55:49.095Z,6.93
2018-03-31T19:58:22.976Z,6.99
2018-03-31T20:00:57.009Z,6.98
2018-03-31T20:03:32.174Z,7.01
2018-03-31T20:06:05.966Z,7.00
2018-03-31T20:08:39.919Z,6.89
2018-03-31T20:11:13.917Z,6.78
2018-03-31T20:13:48.370Z,6.57
2018-03-31T20:16:22.063Z,6.55
2018-03-31T20:18:56.437Z,6.54
2018-03-31T20:21:30.484Z,6.43
2018-03-31T20:24:04.393Z,6.39
2018-03-31T20:26:38.224Z,6.35
2018-03-31T20:29:12.017Z,6.34
2018-03-31T20:31:46.470Z,6.30
2018-03-31T20:34:20.223Z,6.29
2018-03-31T20:36:53.870Z,6.30
2018-03-31T20:39:28.182Z,6.28
2018-03-31T20:42:02.195Z,6.25
2018-03-31T20:44:36.187Z,6.23
2018-03-31T20:47:10.375Z,6.24
2018-03-31T20:49:44.558Z,6.28
2018-03-31T20:52:18.155Z,6.34
2018-03-31T20:54:52.150Z,6.43
2018-03-31T20:57:26.076Z,6.47
2018-03-31T20:59:59.862Z,6.52
2018-03-31T21:02:33.495Z,6.52
2018-03-31T21:05:07.869Z,6.46
2018-03-31T21:07:42.316Z,6.34
2018-03-31T21:10:16.186Z,6.26
2018-03-31T21:12:50.140Z,6.18
2018-03-31T21:15:24.147Z,6.16
2018-03-31T21:17:58.158Z,6.12
2018-03-31T21:20:32.561Z,6.08
2018-03-31T21:23:06.239Z,6.04
2018-03-31T21:25:40.330Z,6.03
2018-03-31T21:28:14.194Z,5.99
2018-03-31T21:30:48.310Z,5.94
2018-03-31T21:33:22.037Z,5.90
2018-03-31T21:35:56.007Z,5.91
2018-03-31T21:38:30.031Z,5.90
2018-03-31T21:41:03.322Z,5.91
2018-03-31T21:43:37.635Z,5.92
2018-03-31T21:46:12.138Z,5.94
2018-03-31T21:48:46.525Z,5.94
2018-03-31T21:51:20.202Z,5.93
2018-03-31T21:53:54.073Z,5.91
2018-03-31T21:56:28.216Z,5.83
2018-03-31T21:59:01.535Z,5.78
2018-03-31T22:01:35.602Z,5.67
2018-03-31T22:04:09.351Z,5.55
2018-03-31T22:06:43.643Z,5.49
2018-03-31T22:09:17.652Z,5.43
2018-03-31T22:11:51.266Z,5.35
2018-03-31T22:14:30.707Z,5.28
2018-03-31T22:17:04.270Z,5.28
2018-03-31T22:19:38.558Z,5.22
2018-03-31T22:22:12.322Z,5.19
2018-03-31T22:24:46.394Z,5.18
2018-03-31T22:27:20.264Z,5.26
2018-03-31T22:29:54.237Z,5.38
2018-03-31T22:32:28.249Z,5.45
2018-03-31T22:35:02.111Z,5.42
2018-03-31T22:37:36.382Z,5.33
2018-03-31T22:40:09.770Z,5.18
2018-03-31T22:42:43.554Z,5.07
2018-03-31T22:45:17.348Z,5.05
2018-03-31T22:47:51.292Z,5.11
2018-03-31T22:50:25.063Z,5.16
2018-03-31T22:52:59.214Z,5.21
2018-03-31T22:55:33.601Z,5.27
2018-03-31T22:58:07.443Z,5.27
2018-03-31T23:00:40.741Z,5.22
2018-03-31T23:03:15.256Z,5.19
2018-03-31T23:05:48.837Z,5.20
2018-03-31T23:08:23.233Z,5.18
2018-03-31T23:10:57.293Z,5.14
2018-03-31T23:13:32.636Z,5.12
2018-03-31T23:16:06.501Z,5.03
2018-03-31T23:18:44.743Z,5.02
2018-03-31T23:21:18.434Z,5.00
2018-03-31T23:23:52.534Z,4.98
2018-03-31T23:26:26.738Z,4.95
2018-03-31T23:29:00.511Z,4.90
2018-03-31T23:31:34.706Z,4.88
2018-03-31T23:34:08.814Z,4.92
2018-03-31T23:36:42.634Z,4.83
2018-03-31T23:39:16.409Z,4.75
2018-03-31T23:41:50.670Z,4.70
2018-03-31T23:44:24.399Z,4.69
2018-03-31T23:46:58.445Z,4.70
2018-03-31T23:49:32.718Z,4.65
2018-03-31T23:52:06.446Z,4.62
2018-03-31T23:54:39.806Z,4.61
2018-03-31T23:57:13.421Z,4.62
2018-03-31T23:59:47.626Z,4.64
